sensor_id;sensor_type;location;lat;lon;timestamp;P1;durP1;ratioP1;P2;durP2;ratioP2
69358;SDS011;56520;49.066;8.660;2023-03-01T00:01:47;4.38;;;2.03;;
69358;SDS011;56520;49.066;8.660;2023-03-01T00:04:13;5.72;;;2.47;;
69358;SDS011;56520;49.066;8.660;2023-03-01T00:06:38;5.03;;;2.40;;
69358;SDS011;56520;49.066;8.660;2023-03-01T00:09:04;9.02;;;2.97;;
69358;SDS011;56520;49.066;8.660;2023-03-01T00:11:30;7.18;;;2.90;;
69358;SDS011;56520;49.066;8.660;2023-03-01T00:13:58;7.03;;;2.50;;
69358;SDS011;56520;49.066;8.660;2023-03-01T00:16:29;4.88;;;2.08;;
69358;SDS011;56520;49.066;8.660;2023-03-01T00:18:58;5.82;;;2.38;;
69358;SDS011;56520;49.066;8.660;2023-03-01T00:21:24;6.00;;;2.30;;
69358;SDS011;56520;49.066;8.660;2023-03-01T00:23:50;4.88;;;2.50;;
69358;SDS011;56520;49.066;8.660;2023-03-01T00:26:17;5.55;;;2.00;;
69358;SDS011;56520;49.066;8.660;2023-03-01T00:28:44;5.80;;;2.58;;
69358;SDS011;56520;49.066;8.660;2023-03-01T00:31:14;6.07;;;3.17;;
69358;SDS011;56520;49.066;8.660;2023-03-01T00:33:42;6.88;;;2.50;;
69358;SDS011;56520;49.066;8.660;2023-03-01T00:36:08;6.60;;;3.53;;
69358;SDS011;56520;49.066;8.660;2023-03-01T00:38:36;7.25;;;3.45;;
69358;SDS011;56520;49.066;8.660;2023-03-01T00:41:03;6.22;;;3.05;;
69358;SDS011;56520;49.066;8.660;2023-03-01T00:43:30;5.82;;;2.72;;
69358;SDS011;56520;49.066;8.660;2023-03-01T00:45:55;4.85;;;2.50;;
69358;SDS011;56520;49.066;8.660;2023-03-01T00:48:25;6.72;;;3.75;;
69358;SDS011;56520;49.066;8.660;2023-03-01T00:50:53;10.93;;;3.90;;
69358;SDS011;56520;49.066;8.660;2023-03-01T00:53:18;6.75;;;3.03;;
69358;SDS011;56520;49.066;8.660;2023-03-01T00:55:44;6.53;;;2.83;;
69358;SDS011;56520;49.066;8.660;2023-03-01T00:58:09;6.78;;;3.60;;
69358;SDS011;56520;49.066;8.660;2023-03-01T01:00:34;6.95;;;2.83;;
69358;SDS011;56520;49.066;8.660;2023-03-01T01:03:00;8.00;;;3.03;;
69358;SDS011;56520;49.066;8.660;2023-03-01T01:05:26;5.03;;;1.63;;
69358;SDS011;56520;49.066;8.660;2023-03-01T01:07:51;5.40;;;2.58;;
69358;SDS011;56520;49.066;8.660;2023-03-01T01:10:17;5.68;;;2.35;;
69358;SDS011;56520;49.066;8.660;2023-03-01T01:12:44;6.70;;;3.15;;
69358;SDS011;56520;49.066;8.660;2023-03-01T01:15:10;6.65;;;3.00;;
69358;SDS011;56520;49.066;8.660;2023-03-01T01:17:41;4.82;;;2.85;;
69358;SDS011;56520;49.066;8.660;2023-03-01T01:20:07;7.07;;;2.35;;
69358;SDS011;56520;49.066;8.660;2023-03-01T01:22:36;4.50;;;2.35;;
69358;SDS011;56520;49.066;8.660;2023-03-01T01:25:01;6.20;;;3.45;;
69358;SDS011;56520;49.066;8.660;2023-03-01T01:27:27;6.70;;;2.50;;
69358;SDS011;56520;49.066;8.660;2023-03-01T01:29:54;5.35;;;2.72;;
69358;SDS011;56520;49.066;8.660;2023-03-01T01:32:19;4.75;;;2.20;;
69358;SDS011;56520;49.066;8.660;2023-03-01T01:34:45;4.72;;;2.72;;
69358;SDS011;56520;49.066;8.660;2023-03-01T01:37:11;7.65;;;3.08;;
69358;SDS011;56520;49.066;8.660;2023-03-01T01:39:37;7.18;;;2.63;;
69358;SDS011;56520;49.066;8.660;2023-03-01T01:42:02;5.57;;;2.47;;
69358;SDS011;56520;49.066;8.660;2023-03-01T01:44:28;6.85;;;3.15;;
69358;SDS011;56520;49.066;8.660;2023-03-01T01:49:41;7.28;;;3.38;;
69358;SDS011;56520;49.066;8.660;2023-03-01T01:52:16;5.25;;;2.85;;
69358;SDS011;56520;49.066;8.660;2023-03-01T01:54:53;6.38;;;2.97;;
69358;SDS011;56520;49.066;8.660;2023-03-01T01:57:44;9.85;;;3.10;;
69358;SDS011;56520;49.066;8.660;2023-03-01T02:00:13;6.38;;;2.47;;
69358;SDS011;56520;49.066;8.660;2023-03-01T02:03:11;5.95;;;2.83;;
69358;SDS011;56520;49.066;8.660;2023-03-01T02:08:19;7.28;;;3.38;;
69358;SDS011;56520;49.066;8.660;2023-03-01T02:10:45;5.47;;;2.58;;
69358;SDS011;56520;49.066;8.660;2023-03-01T02:13:13;4.82;;;2.75;;
69358;SDS011;56520;49.066;8.660;2023-03-01T02:15:39;7.25;;;2.78;;
69358;SDS011;56520;49.066;8.660;2023-03-01T02:18:06;6.05;;;2.97;;
69358;SDS011;56520;49.066;8.660;2023-03-01T02:23:13;8.23;;;2.65;;
69358;SDS011;56520;49.066;8.660;2023-03-01T02:28:29;10.52;;;2.65;;
69358;SDS011;56520;49.066;8.660;2023-03-01T02:31:03;9.02;;;3.28;;
69358;SDS011;56520;49.066;8.660;2023-03-01T02:33:49;8.60;;;3.40;;
69358;SDS011;56520;49.066;8.660;2023-03-01T02:36:18;10.82;;;3.50;;
69358;SDS011;56520;49.066;8.660;2023-03-01T02:38:47;6.20;;;2.88;;
69358;SDS011;56520;49.066;8.660;2023-03-01T02:41:15;8.10;;;3.35;;
69358;SDS011;56520;49.066;8.660;2023-03-01T02:43:43;4.28;;;1.90;;
69358;SDS011;56520;49.066;8.660;2023-03-01T02:46:20;7.63;;;3.20;;
69358;SDS011;56520;49.066;8.660;2023-03-01T02:48:49;8.20;;;3.33;;
69358;SDS011;56520;49.066;8.660;2023-03-01T02:56:54;9.15;;;3.78;;
69358;SDS011;56520;49.066;8.660;2023-03-01T02:59:22;6.60;;;2.95;;
69358;SDS011;56520;49.066;8.660;2023-03-01T03:01:52;10.07;;;2.75;;
69358;SDS011;56520;49.066;8.660;2023-03-01T03:04:18;5.63;;;3.17;;
69358;SDS011;56520;49.066;8.660;2023-03-01T03:06:46;5.20;;;2.15;;
69358;SDS011;56520;49.066;8.660;2023-03-01T03:09:14;4.97;;;2.65;;
69358;SDS011;56520;49.066;8.660;2023-03-01T03:11:40;5.57;;;2.72;;
69358;SDS011;56520;49.066;8.660;2023-03-01T03:14:07;5.10;;;2.55;;
69358;SDS011;56520;49.066;8.660;2023-03-01T03:16:48;5.70;;;2.30;;
69358;SDS011;56520;49.066;8.660;2023-03-01T03:19:18;4.68;;;2.30;;
69358;SDS011;56520;49.066;8.660;2023-03-01T03:21:44;7.15;;;2.10;;
69358;SDS011;56520;49.066;8.660;2023-03-01T03:24:09;12.63;;;2.30;;
69358;SDS011;56520;49.066;8.660;2023-03-01T03:26:35;4.50;;;2.67;;
69358;SDS011;56520;49.066;8.660;2023-03-01T03:29:01;3.92;;;2.38;;
69358;SDS011;56520;49.066;8.660;2023-03-01T03:31:26;4.32;;;1.95;;
69358;SDS011;56520;49.066;8.660;2023-03-01T03:33:52;5.80;;;3.03;;
69358;SDS011;56520;49.066;8.660;2023-03-01T03:36:19;6.00;;;3.03;;
69358;SDS011;56520;49.066;8.660;2023-03-01T03:38:46;4.35;;;2.05;;
69358;SDS011;56520;49.066;8.660;2023-03-01T03:41:13;7.18;;;2.60;;
69358;SDS011;56520;49.066;8.660;2023-03-01T03:43:40;4.95;;;2.30;;
69358;SDS011;56520;49.066;8.660;2023-03-01T03:46:08;9.05;;;4.18;;
69358;SDS011;56520;49.066;8.660;2023-03-01T03:48:35;9.57;;;3.33;;
69358;SDS011;56520;49.066;8.660;2023-03-01T03:51:02;5.10;;;2.20;;
69358;SDS011;56520;49.066;8.660;2023-03-01T03:53:30;6.30;;;3.10;;
69358;SDS011;56520;49.066;8.660;2023-03-01T03:55:55;7.00;;;3.25;;
69358;SDS011;56520;49.066;8.660;2023-03-01T03:58:21;5.82;;;2.38;;
69358;SDS011;56520;49.066;8.660;2023-03-01T04:00:49;4.38;;;2.15;;
69358;SDS011;56520;49.066;8.660;2023-03-01T04:03:16;7.10;;;3.45;;
69358;SDS011;56520;49.066;8.660;2023-03-01T04:05:44;6.80;;;3.40;;
69358;SDS011;56520;49.066;8.660;2023-03-01T04:08:09;8.55;;;3.50;;
69358;SDS011;56520;49.066;8.660;2023-03-01T04:10:36;6.80;;;3.88;;
69358;SDS011;56520;49.066;8.660;2023-03-01T04:13:07;6.75;;;3.05;;
69358;SDS011;56520;49.066;8.660;2023-03-01T04:15:35;7.65;;;2.88;;
69358;SDS011;56520;49.066;8.660;2023-03-01T04:18:01;9.18;;;3.00;;
69358;SDS011;56520;49.066;8.660;2023-03-01T04:20:29;6.50;;;3.55;;
69358;SDS011;56520;49.066;8.660;2023-03-01T04:23:00;6.38;;;3.38;;
69358;SDS011;56520;49.066;8.660;2023-03-01T04:28:24;7.13;;;3.10;;
69358;SDS011;56520;49.066;8.660;2023-03-01T04:30:51;4.78;;;2.65;;
69358;SDS011;56520;49.066;8.660;2023-03-01T04:33:17;7.10;;;3.05;;
69358;SDS011;56520;49.066;8.660;2023-03-01T04:35:43;5.13;;;2.50;;
69358;SDS011;56520;49.066;8.660;2023-03-01T04:38:09;5.13;;;3.00;;
69358;SDS011;56520;49.066;8.660;2023-03-01T04:40:35;6.20;;;2.63;;
69358;SDS011;56520;49.066;8.660;2023-03-01T04:43:02;5.45;;;2.60;;
69358;SDS011;56520;49.066;8.660;2023-03-01T04:45:28;7.10;;;3.00;;
69358;SDS011;56520;49.066;8.660;2023-03-01T04:47:53;7.60;;;3.30;;
69358;SDS011;56520;49.066;8.660;2023-03-01T04:50:20;8.68;;;4.13;;
69358;SDS011;56520;49.066;8.660;2023-03-01T04:52:46;6.53;;;3.05;;
69358;SDS011;56520;49.066;8.660;2023-03-01T04:55:12;6.97;;;3.20;;
69358;SDS011;56520;49.066;8.660;2023-03-01T04:57:38;7.78;;;3.17;;
69358;SDS011;56520;49.066;8.660;2023-03-01T05:00:05;7.47;;;3.53;;
69358;SDS011;56520;49.066;8.660;2023-03-01T05:02:45;5.82;;;3.00;;
69358;SDS011;56520;49.066;8.660;2023-03-01T05:05:22;6.45;;;3.35;;
69358;SDS011;56520;49.066;8.660;2023-03-01T05:07:53;5.43;;;2.95;;
69358;SDS011;56520;49.066;8.660;2023-03-01T05:10:19;5.55;;;2.83;;
69358;SDS011;56520;49.066;8.660;2023-03-01T05:12:45;7.53;;;3.17;;
69358;SDS011;56520;49.066;8.660;2023-03-01T05:15:11;6.63;;;2.78;;
69358;SDS011;56520;49.066;8.660;2023-03-01T05:17:37;6.93;;;3.25;;
69358;SDS011;56520;49.066;8.660;2023-03-01T05:20:03;7.38;;;3.50;;
69358;SDS011;56520;49.066;8.660;2023-03-01T05:22:33;7.38;;;2.97;;
69358;SDS011;56520;49.066;8.660;2023-03-01T05:24:59;5.05;;;2.38;;
69358;SDS011;56520;49.066;8.660;2023-03-01T05:27:24;9.32;;;3.72;;
69358;SDS011;56520;49.066;8.660;2023-03-01T05:29:50;6.78;;;3.40;;
69358;SDS011;56520;49.066;8.660;2023-03-01T05:32:15;7.90;;;3.03;;
69358;SDS011;56520;49.066;8.660;2023-03-01T05:34:41;6.45;;;2.88;;
69358;SDS011;56520;49.066;8.660;2023-03-01T05:37:07;7.55;;;3.13;;
69358;SDS011;56520;49.066;8.660;2023-03-01T05:39:32;7.07;;;3.10;;
69358;SDS011;56520;49.066;8.660;2023-03-01T05:41:59;9.15;;;4.22;;
69358;SDS011;56520;49.066;8.660;2023-03-01T05:44:27;7.03;;;3.00;;
69358;SDS011;56520;49.066;8.660;2023-03-01T05:46:53;8.70;;;3.85;;
69358;SDS011;56520;49.066;8.660;2023-03-01T05:49:19;10.32;;;3.88;;
69358;SDS011;56520;49.066;8.660;2023-03-01T05:51:49;5.90;;;3.42;;
69358;SDS011;56520;49.066;8.660;2023-03-01T05:54:15;9.25;;;3.63;;
69358;SDS011;56520;49.066;8.660;2023-03-01T05:56:41;7.50;;;3.47;;
69358;SDS011;56520;49.066;8.660;2023-03-01T05:59:07;5.55;;;3.35;;
69358;SDS011;56520;49.066;8.660;2023-03-01T06:01:33;5.38;;;2.85;;
69358;SDS011;56520;49.066;8.660;2023-03-01T06:03:59;9.88;;;3.58;;
69358;SDS011;56520;49.066;8.660;2023-03-01T06:06:25;8.23;;;3.60;;
69358;SDS011;56520;49.066;8.660;2023-03-01T06:08:51;7.38;;;3.30;;
69358;SDS011;56520;49.066;8.660;2023-03-01T06:11:18;15.02;;;2.83;;
69358;SDS011;56520;49.066;8.660;2023-03-01T06:13:44;7.68;;;3.70;;
69358;SDS011;56520;49.066;8.660;2023-03-01T06:16:10;6.88;;;2.97;;
69358;SDS011;56520;49.066;8.660;2023-03-01T06:18:36;8.68;;;3.55;;
69358;SDS011;56520;49.066;8.660;2023-03-01T06:21:02;8.75;;;3.97;;
69358;SDS011;56520;49.066;8.660;2023-03-01T06:23:29;6.57;;;3.38;;
69358;SDS011;56520;49.066;8.660;2023-03-01T06:25:54;6.30;;;3.25;;
69358;SDS011;56520;49.066;8.660;2023-03-01T06:28:20;7.75;;;3.80;;
69358;SDS011;56520;49.066;8.660;2023-03-01T06:30:45;6.63;;;3.13;;
69358;SDS011;56520;49.066;8.660;2023-03-01T06:33:11;8.77;;;4.38;;
69358;SDS011;56520;49.066;8.660;2023-03-01T06:35:37;9.45;;;3.70;;
69358;SDS011;56520;49.066;8.660;2023-03-01T06:38:03;7.50;;;3.53;;
69358;SDS011;56520;49.066;8.660;2023-03-01T06:40:30;6.10;;;3.55;;
69358;SDS011;56520;49.066;8.660;2023-03-01T06:42:56;7.68;;;3.47;;
69358;SDS011;56520;49.066;8.660;2023-03-01T06:45:23;9.80;;;4.47;;
69358;SDS011;56520;49.066;8.660;2023-03-01T06:47:49;8.88;;;3.83;;
69358;SDS011;56520;49.066;8.660;2023-03-01T06:50:15;13.18;;;4.13;;
69358;SDS011;56520;49.066;8.660;2023-03-01T06:52:42;8.77;;;3.78;;
69358;SDS011;56520;49.066;8.660;2023-03-01T06:55:09;8.18;;;3.80;;
69358;SDS011;56520;49.066;8.660;2023-03-01T06:57:36;9.32;;;3.80;;
69358;SDS011;56520;49.066;8.660;2023-03-01T07:00:02;8.90;;;4.65;;
69358;SDS011;56520;49.066;8.660;2023-03-01T07:02:29;6.78;;;3.40;;
69358;SDS011;56520;49.066;8.660;2023-03-01T07:04:54;10.75;;;4.95;;
69358;SDS011;56520;49.066;8.660;2023-03-01T07:07:20;7.38;;;3.17;;
69358;SDS011;56520;49.066;8.660;2023-03-01T07:09:46;6.60;;;3.45;;
69358;SDS011;56520;49.066;8.660;2023-03-01T07:12:13;7.00;;;3.95;;
69358;SDS011;56520;49.066;8.660;2023-03-01T07:14:39;7.00;;;3.03;;
69358;SDS011;56520;49.066;8.660;2023-03-01T07:17:04;9.55;;;3.85;;
69358;SDS011;56520;49.066;8.660;2023-03-01T07:19:30;7.68;;;3.45;;
69358;SDS011;56520;49.066;8.660;2023-03-01T07:21:55;6.88;;;2.92;;
69358;SDS011;56520;49.066;8.660;2023-03-01T07:24:21;8.63;;;3.47;;
69358;SDS011;56520;49.066;8.660;2023-03-01T07:26:50;8.25;;;3.70;;
69358;SDS011;56520;49.066;8.660;2023-03-01T07:29:17;7.03;;;3.92;;
69358;SDS011;56520;49.066;8.660;2023-03-01T07:31:42;7.93;;;3.45;;
69358;SDS011;56520;49.066;8.660;2023-03-01T07:34:08;8.60;;;3.72;;
69358;SDS011;56520;49.066;8.660;2023-03-01T07:36:34;7.82;;;3.35;;
69358;SDS011;56520;49.066;8.660;2023-03-01T07:38:59;7.45;;;3.70;;
69358;SDS011;56520;49.066;8.660;2023-03-01T07:41:27;10.23;;;4.32;;
69358;SDS011;56520;49.066;8.660;2023-03-01T07:43:53;8.57;;;3.60;;
69358;SDS011;56520;49.066;8.660;2023-03-01T07:46:18;10.38;;;4.43;;
69358;SDS011;56520;49.066;8.660;2023-03-01T07:48:44;8.80;;;3.70;;
69358;SDS011;56520;49.066;8.660;2023-03-01T07:51:09;10.20;;;4.43;;
69358;SDS011;56520;49.066;8.660;2023-03-01T07:53:35;9.48;;;3.95;;
69358;SDS011;56520;49.066;8.660;2023-03-01T07:56:01;7.57;;;3.83;;
69358;SDS011;56520;49.066;8.660;2023-03-01T07:58:38;11.35;;;4.25;;
69358;SDS011;56520;49.066;8.660;2023-03-01T08:01:05;9.27;;;5.35;;
69358;SDS011;56520;49.066;8.660;2023-03-01T08:03:32;7.53;;;3.72;;
69358;SDS011;56520;49.066;8.660;2023-03-01T08:05:59;8.50;;;4.03;;
69358;SDS011;56520;49.066;8.660;2023-03-01T08:08:25;9.40;;;4.78;;
69358;SDS011;56520;49.066;8.660;2023-03-01T08:10:51;7.65;;;4.25;;
69358;SDS011;56520;49.066;8.660;2023-03-01T08:13:16;9.40;;;4.47;;
69358;SDS011;56520;49.066;8.660;2023-03-01T08:15:47;7.70;;;3.78;;
69358;SDS011;56520;49.066;8.660;2023-03-01T08:18:13;9.20;;;4.53;;
69358;SDS011;56520;49.066;8.660;2023-03-01T08:20:39;8.15;;;3.83;;
69358;SDS011;56520;49.066;8.660;2023-03-01T08:23:05;11.38;;;4.72;;
69358;SDS011;56520;49.066;8.660;2023-03-01T08:25:30;10.25;;;4.32;;
69358;SDS011;56520;49.066;8.660;2023-03-01T08:27:56;9.80;;;4.82;;
69358;SDS011;56520;49.066;8.660;2023-03-01T08:30:21;10.35;;;5.00;;
69358;SDS011;56520;49.066;8.660;2023-03-01T08:32:49;13.40;;;5.30;;
69358;SDS011;56520;49.066;8.660;2023-03-01T08:37:40;6.40;;;3.15;;
69358;SDS011;56520;49.066;8.660;2023-03-01T08:40:06;8.15;;;3.90;;
69358;SDS011;56520;49.066;8.660;2023-03-01T08:42:32;9.38;;;4.63;;
69358;SDS011;56520;49.066;8.660;2023-03-01T08:44:58;11.27;;;5.18;;
69358;SDS011;56520;49.066;8.660;2023-03-01T08:49:50;8.75;;;4.00;;
69358;SDS011;56520;49.066;8.660;2023-03-01T08:54:41;8.63;;;3.67;;
69358;SDS011;56520;49.066;8.660;2023-03-01T08:57:06;10.40;;;3.92;;
69358;SDS011;56520;49.066;8.660;2023-03-01T09:02:02;8.23;;;3.95;;
69358;SDS011;56520;49.066;8.660;2023-03-01T09:04:28;17.92;;;5.65;;
69358;SDS011;56520;49.066;8.660;2023-03-01T09:06:54;10.63;;;4.90;;
69358;SDS011;56520;49.066;8.660;2023-03-01T09:11:45;10.02;;;4.70;;
69358;SDS011;56520;49.066;8.660;2023-03-01T09:14:12;9.73;;;4.22;;
69358;SDS011;56520;49.066;8.660;2023-03-01T09:16:38;12.30;;;5.55;;
69358;SDS011;56520;49.066;8.660;2023-03-01T09:19:04;15.05;;;5.60;;
69358;SDS011;56520;49.066;8.660;2023-03-01T09:21:30;14.52;;;5.90;;
69358;SDS011;56520;49.066;8.660;2023-03-01T09:23:57;11.35;;;5.43;;
69358;SDS011;56520;49.066;8.660;2023-03-01T09:26:23;14.80;;;5.63;;
69358;SDS011;56520;49.066;8.660;2023-03-01T09:28:50;13.55;;;5.65;;
69358;SDS011;56520;49.066;8.660;2023-03-01T09:31:17;15.55;;;5.90;;
69358;SDS011;56520;49.066;8.660;2023-03-01T09:33:45;16.58;;;6.72;;
69358;SDS011;56520;49.066;8.660;2023-03-01T09:36:13;12.98;;;5.45;;
69358;SDS011;56520;49.066;8.660;2023-03-01T09:38:43;13.40;;;6.32;;
69358;SDS011;56520;49.066;8.660;2023-03-01T09:41:10;13.15;;;6.13;;
69358;SDS011;56520;49.066;8.660;2023-03-01T09:43:46;12.98;;;5.85;;
69358;SDS011;56520;49.066;8.660;2023-03-01T09:46:19;13.95;;;5.82;;
69358;SDS011;56520;49.066;8.660;2023-03-01T09:48:48;11.23;;;5.22;;
69358;SDS011;56520;49.066;8.660;2023-03-01T09:51:35;13.95;;;6.10;;
69358;SDS011;56520;49.066;8.660;2023-03-01T09:54:02;12.18;;;6.05;;
69358;SDS011;56520;49.066;8.660;2023-03-01T09:56:30;13.27;;;5.88;;
69358;SDS011;56520;49.066;8.660;2023-03-01T10:04:27;12.35;;;6.22;;
69358;SDS011;56520;49.066;8.660;2023-03-01T10:10:14;13.30;;;6.22;;
69358;SDS011;56520;49.066;8.660;2023-03-01T10:13:04;11.98;;;5.32;;
69358;SDS011;56520;49.066;8.660;2023-03-01T10:15:57;14.18;;;5.70;;
69358;SDS011;56520;49.066;8.660;2023-03-01T10:18:31;12.15;;;5.75;;
69358;SDS011;56520;49.066;8.660;2023-03-01T10:21:02;12.85;;;5.72;;
69358;SDS011;56520;49.066;8.660;2023-03-01T10:23:40;12.25;;;5.93;;
69358;SDS011;56520;49.066;8.660;2023-03-01T10:26:12;14.18;;;6.20;;
69358;SDS011;56520;49.066;8.660;2023-03-01T10:29:04;14.20;;;6.13;;
69358;SDS011;56520;49.066;8.660;2023-03-01T10:31:48;12.88;;;5.55;;
69358;SDS011;56520;49.066;8.660;2023-03-01T10:34:34;15.13;;;6.38;;
69358;SDS011;56520;49.066;8.660;2023-03-01T10:39:37;16.10;;;6.28;;
69358;SDS011;56520;49.066;8.660;2023-03-01T10:42:26;11.63;;;5.75;;
69358;SDS011;56520;49.066;8.660;2023-03-01T10:44:53;16.60;;;5.72;;
69358;SDS011;56520;49.066;8.660;2023-03-01T10:47:20;13.90;;;6.13;;
69358;SDS011;56520;49.066;8.660;2023-03-01T10:49:56;11.85;;;5.30;;
69358;SDS011;56520;49.066;8.660;2023-03-01T10:52:29;11.93;;;5.57;;
69358;SDS011;56520;49.066;8.660;2023-03-01T10:55:23;12.68;;;6.25;;
69358;SDS011;56520;49.066;8.660;2023-03-01T10:57:49;17.92;;;6.25;;
69358;SDS011;56520;49.066;8.660;2023-03-01T11:00:17;15.70;;;5.95;;
69358;SDS011;56520;49.066;8.660;2023-03-01T11:02:47;14.13;;;6.10;;
69358;SDS011;56520;49.066;8.660;2023-03-01T11:07:50;11.38;;;5.53;;
69358;SDS011;56520;49.066;8.660;2023-03-01T11:10:34;13.25;;;5.80;;
69358;SDS011;56520;49.066;8.660;2023-03-01T11:13:19;11.75;;;5.60;;
69358;SDS011;56520;49.066;8.660;2023-03-01T11:16:02;14.63;;;6.53;;
69358;SDS011;56520;49.066;8.660;2023-03-01T11:18:30;13.90;;;6.32;;
69358;SDS011;56520;49.066;8.660;2023-03-01T11:20:56;13.88;;;6.28;;
69358;SDS011;56520;49.066;8.660;2023-03-01T11:23:23;17.42;;;6.90;;
69358;SDS011;56520;49.066;8.660;2023-03-01T11:25:58;13.68;;;6.20;;
69358;SDS011;56520;49.066;8.660;2023-03-01T11:28:27;13.75;;;5.97;;
69358;SDS011;56520;49.066;8.660;2023-03-01T11:30:58;13.05;;;5.75;;
69358;SDS011;56520;49.066;8.660;2023-03-01T11:36:11;17.40;;;6.80;;
69358;SDS011;56520;49.066;8.660;2023-03-01T11:38:54;14.07;;;5.80;;
69358;SDS011;56520;49.066;8.660;2023-03-01T11:41:21;16.98;;;6.45;;
69358;SDS011;56520;49.066;8.660;2023-03-01T11:51:47;13.25;;;6.13;;
69358;SDS011;56520;49.066;8.660;2023-03-01T11:56:55;14.15;;;5.68;;
69358;SDS011;56520;49.066;8.660;2023-03-01T12:29:00;14.40;;;6.13;;
69358;SDS011;56520;49.066;8.660;2023-03-01T12:40:03;12.73;;;5.88;;
69358;SDS011;56520;49.066;8.660;2023-03-01T12:51:15;13.13;;;6.22;;
69358;SDS011;56520;49.066;8.660;2023-03-01T12:53:44;11.00;;;5.55;;
69358;SDS011;56520;49.066;8.660;2023-03-01T12:56:21;14.35;;;6.57;;
69358;SDS011;56520;49.066;8.660;2023-03-01T13:13:13;12.88;;;6.07;;
69358;SDS011;56520;49.066;8.660;2023-03-01T13:15:44;13.60;;;6.25;;
69358;SDS011;56520;49.066;8.660;2023-03-01T13:26:00;13.00;;;5.95;;
69358;SDS011;56520;49.066;8.660;2023-03-01T13:33:44;14.05;;;6.22;;
69358;SDS011;56520;49.066;8.660;2023-03-01T13:36:11;12.63;;;5.70;;
69358;SDS011;56520;49.066;8.660;2023-03-01T13:38:58;11.88;;;5.80;;
69358;SDS011;56520;49.066;8.660;2023-03-01T13:44:29;11.35;;;5.93;;
69358;SDS011;56520;49.066;8.660;2023-03-01T13:46:57;12.30;;;5.45;;
69358;SDS011;56520;49.066;8.660;2023-03-01T13:49:41;13.18;;;6.03;;
69358;SDS011;56520;49.066;8.660;2023-03-01T13:52:43;12.32;;;5.97;;
69358;SDS011;56520;49.066;8.660;2023-03-01T13:55:07;12.18;;;6.18;;
69358;SDS011;56520;49.066;8.660;2023-03-01T13:57:39;13.05;;;5.93;;
69358;SDS011;56520;49.066;8.660;2023-03-01T14:00:07;11.95;;;6.15;;
69358;SDS011;56520;49.066;8.660;2023-03-01T14:02:59;13.15;;;6.00;;
69358;SDS011;56520;49.066;8.660;2023-03-01T14:05:30;13.48;;;5.53;;
69358;SDS011;56520;49.066;8.660;2023-03-01T14:07:56;14.23;;;5.65;;
69358;SDS011;56520;49.066;8.660;2023-03-01T14:10:22;14.50;;;5.88;;
69358;SDS011;56520;49.066;8.660;2023-03-01T14:13:00;13.65;;;5.93;;
69358;SDS011;56520;49.066;8.660;2023-03-01T14:15:34;13.60;;;6.07;;
69358;SDS011;56520;49.066;8.660;2023-03-01T14:20:48;11.55;;;5.03;;
69358;SDS011;56520;49.066;8.660;2023-03-01T14:23:20;12.43;;;5.47;;
69358;SDS011;56520;49.066;8.660;2023-03-01T14:25:56;12.75;;;5.72;;
69358;SDS011;56520;49.066;8.660;2023-03-01T14:30:55;14.18;;;6.03;;
69358;SDS011;56520;49.066;8.660;2023-03-01T14:35:59;12.88;;;5.30;;
69358;SDS011;56520;49.066;8.660;2023-03-01T14:40:56;11.30;;;5.75;;
69358;SDS011;56520;49.066;8.660;2023-03-01T14:43:26;10.75;;;5.18;;
69358;SDS011;56520;49.066;8.660;2023-03-01T14:45:54;11.93;;;5.72;;
69358;SDS011;56520;49.066;8.660;2023-03-01T14:48:19;12.32;;;5.90;;
69358;SDS011;56520;49.066;8.660;2023-03-01T14:50:48;12.27;;;5.43;;
69358;SDS011;56520;49.066;8.660;2023-03-01T14:53:22;12.10;;;6.25;;
69358;SDS011;56520;49.066;8.660;2023-03-01T14:55:53;13.32;;;5.45;;
69358;SDS011;56520;49.066;8.660;2023-03-01T14:58:29;12.02;;;5.65;;
69358;SDS011;56520;49.066;8.660;2023-03-01T15:00:59;12.50;;;5.53;;
69358;SDS011;56520;49.066;8.660;2023-03-01T15:03:34;12.93;;;6.10;;
69358;SDS011;56520;49.066;8.660;2023-03-01T15:06:05;14.60;;;5.60;;
69358;SDS011;56520;49.066;8.660;2023-03-01T15:08:32;13.93;;;5.97;;
69358;SDS011;56520;49.066;8.660;2023-03-01T15:13:39;10.75;;;4.93;;
69358;SDS011;56520;49.066;8.660;2023-03-01T15:18:36;12.00;;;5.47;;
69358;SDS011;56520;49.066;8.660;2023-03-01T15:21:13;14.50;;;5.05;;
69358;SDS011;56520;49.066;8.660;2023-03-01T15:23:42;15.32;;;5.75;;
69358;SDS011;56520;49.066;8.660;2023-03-01T15:26:30;11.82;;;5.72;;
69358;SDS011;56520;49.066;8.660;2023-03-01T15:29:10;12.10;;;5.30;;
69358;SDS011;56520;49.066;8.660;2023-03-01T15:31:42;12.13;;;5.43;;
69358;SDS011;56520;49.066;8.660;2023-03-01T15:37:35;12.80;;;5.25;;
69358;SDS011;56520;49.066;8.660;2023-03-01T15:43:05;12.70;;;5.65;;
69358;SDS011;56520;49.066;8.660;2023-03-01T15:45:32;12.23;;;5.43;;
69358;SDS011;56520;49.066;8.660;2023-03-01T15:48:04;11.98;;;5.50;;
69358;SDS011;56520;49.066;8.660;2023-03-01T15:50:40;14.52;;;5.68;;
69358;SDS011;56520;49.066;8.660;2023-03-01T15:53:06;11.15;;;5.20;;
69358;SDS011;56520;49.066;8.660;2023-03-01T15:55:36;17.85;;;5.43;;
69358;SDS011;56520;49.066;8.660;2023-03-01T15:58:15;10.25;;;4.78;;
69358;SDS011;56520;49.066;8.660;2023-03-01T16:00:43;13.13;;;5.45;;
69358;SDS011;56520;49.066;8.660;2023-03-01T16:03:10;10.52;;;5.20;;
69358;SDS011;56520;49.066;8.660;2023-03-01T16:05:37;12.48;;;5.93;;
69358;SDS011;56520;49.066;8.660;2023-03-01T16:08:03;13.23;;;6.10;;
69358;SDS011;56520;49.066;8.660;2023-03-01T16:10:31;12.77;;;5.35;;
69358;SDS011;56520;49.066;8.660;2023-03-01T16:12:57;11.82;;;5.28;;
69358;SDS011;56520;49.066;8.660;2023-03-01T16:15:25;13.05;;;5.38;;
69358;SDS011;56520;49.066;8.660;2023-03-01T16:17:56;11.43;;;4.85;;
69358;SDS011;56520;49.066;8.660;2023-03-01T16:20:25;12.57;;;4.22;;
69358;SDS011;56520;49.066;8.660;2023-03-01T16:22:51;11.18;;;4.90;;
69358;SDS011;56520;49.066;8.660;2023-03-01T16:25:17;13.55;;;5.15;;
69358;SDS011;56520;49.066;8.660;2023-03-01T16:27:44;11.05;;;5.28;;
69358;SDS011;56520;49.066;8.660;2023-03-01T16:30:12;10.95;;;5.45;;
69358;SDS011;56520;49.066;8.660;2023-03-01T16:32:39;10.98;;;5.07;;
69358;SDS011;56520;49.066;8.660;2023-03-01T16:35:06;10.30;;;5.00;;
69358;SDS011;56520;49.066;8.660;2023-03-01T16:37:33;11.35;;;5.30;;
69358;SDS011;56520;49.066;8.660;2023-03-01T16:40:00;12.50;;;5.28;;
69358;SDS011;56520;49.066;8.660;2023-03-01T16:42:25;11.05;;;5.53;;
69358;SDS011;56520;49.066;8.660;2023-03-01T16:44:54;11.00;;;4.97;;
69358;SDS011;56520;49.066;8.660;2023-03-01T16:47:20;14.02;;;5.78;;
69358;SDS011;56520;49.066;8.660;2023-03-01T16:49:47;11.40;;;4.60;;
69358;SDS011;56520;49.066;8.660;2023-03-01T16:52:12;9.90;;;4.50;;
69358;SDS011;56520;49.066;8.660;2023-03-01T16:54:38;11.40;;;5.20;;
69358;SDS011;56520;49.066;8.660;2023-03-01T16:57:03;13.90;;;4.38;;
69358;SDS011;56520;49.066;8.660;2023-03-01T16:59:29;14.55;;;5.60;;
69358;SDS011;56520;49.066;8.660;2023-03-01T17:01:55;11.73;;;5.68;;
69358;SDS011;56520;49.066;8.660;2023-03-01T17:04:20;11.27;;;4.57;;
69358;SDS011;56520;49.066;8.660;2023-03-01T17:06:46;11.90;;;4.93;;
69358;SDS011;56520;49.066;8.660;2023-03-01T17:09:13;12.05;;;4.72;;
69358;SDS011;56520;49.066;8.660;2023-03-01T17:11:39;25.20;;;5.30;;
69358;SDS011;56520;49.066;8.660;2023-03-01T17:14:05;13.02;;;5.25;;
69358;SDS011;56520;49.066;8.660;2023-03-01T17:16:31;9.75;;;4.28;;
69358;SDS011;56520;49.066;8.660;2023-03-01T17:18:57;11.02;;;4.85;;
69358;SDS011;56520;49.066;8.660;2023-03-01T17:21:23;10.52;;;4.68;;
69358;SDS011;56520;49.066;8.660;2023-03-01T17:23:48;11.13;;;4.75;;
69358;SDS011;56520;49.066;8.660;2023-03-01T17:26:14;11.80;;;5.35;;
69358;SDS011;56520;49.066;8.660;2023-03-01T17:28:41;11.30;;;5.15;;